sensor_id;sensor_type;location;lat;lon;timestamp;temperature;humidity
18686;DHT22;9473;52.342;13.110;2022-07-21T05:13:50;23.70;99.90
18686;DHT22;9473;52.342;13.110;2022-07-21T05:16:16;23.70;99.90
18686;DHT22;9473;52.342;13.110;2022-07-21T05:18:44;23.90;99.90
18686;DHT22;9473;52.342;13.110;2022-07-21T05:21:11;23.70;99.90
18686;DHT22;9473;52.342;13.110;2022-07-21T05:23:37;23.70;99.90
18686;DHT22;9473;52.342;13.110;2022-07-21T05:26:04;23.80;99.90
18686;DHT22;9473;52.342;13.110;2022-07-21T05:28:30;23.90;99.90
18686;DHT22;9473;52.342;13.110;2022-07-21T05:30:57;24.00;99.90
18686;DHT22;9473;52.342;13.110;2022-07-21T05:33:23;23.80;99.90
18686;DHT22;9473;52.342;13.110;2022-07-21T05:35:51;23.80;99.90
18686;DHT22;9473;52.342;13.110;2022-07-21T05:38:18;24.00;99.90
18686;DHT22;9473;52.342;13.110;2022-07-21T05:40:44;23.70;99.90
18686;DHT22;9473;52.342;13.110;2022-07-21T05:43:11;23.80;99.90
18686;DHT22;9473;52.342;13.110;2022-07-21T05:45:37;24.10;99.90
18686;DHT22;9473;52.342;13.110;2022-07-21T05:48:04;23.70;99.90
18686;DHT22;9473;52.342;13.110;2022-07-21T05:50:31;24.00;99.90
18686;DHT22;9473;52.342;13.110;2022-07-21T05:52:59;23.90;99.90
18686;DHT22;9473;52.342;13.110;2022-07-21T05:55:25;23.90;99.90
18686;DHT22;9473;52.342;13.110;2022-07-21T05:57:52;23.60;99.90
18686;DHT22;9473;52.342;13.110;2022-07-21T06:00:18;24.00;99.90
18686;DHT22;9473;52.342;13.110;2022-07-21T06:02:46;23.80;99.90
18686;DHT22;9473;52.342;13.110;2022-07-21T06:05:12;23.80;99.90
18686;DHT22;9473;52.342;13.110;2022-07-21T06:07:40;23.70;99.90
18686;DHT22;9473;52.342;13.110;2022-07-21T06:10:08;23.60;99.90
18686;DHT22;9473;52.342;13.110;2022-07-21T06:12:35;23.70;99.90
18686;DHT22;9473;52.342;13.110;2022-07-21T06:15:01;23.90;99.90
18686;DHT22;9473;52.342;13.110;2022-07-21T06:17:28;23.70;99.90
18686;DHT22;9473;52.342;13.110;2022-07-21T06:19:56;23.80;99.90
18686;DHT22;9473;52.342;13.110;2022-07-21T06:22:23;23.70;99.90
18686;DHT22;9473;52.342;13.110;2022-07-21T06:24:49;23.70;99.90
18686;DHT22;9473;52.342;13.110;2022-07-21T06:27:17;23.80;99.90
18686;DHT22;9473;52.342;13.110;2022-07-21T06:29:44;23.70;99.90
18686;DHT22;9473;52.342;13.110;2022-07-21T06:32:10;23.90;99.90
18686;DHT22;9473;52.342;13.110;2022-07-21T06:34:37;23.90;99.90
18686;DHT22;9473;52.342;13.110;2022-07-21T06:37:03;23.80;99.90
18686;DHT22;9473;52.342;13.110;2022-07-21T06:39:30;23.80;99.90
18686;DHT22;9473;52.342;13.110;2022-07-21T06:41:57;23.70;99.90
18686;DHT22;9473;52.342;13.110;2022-07-21T06:44:24;23.80;99.90
18686;DHT22;9473;52.342;13.110;2022-07-21T06:46:52;23.80;99.90
18686;DHT22;9473;52.342;13.110;2022-07-21T06:49:19;23.90;99.90
18686;DHT22;9473;52.342;13.110;2022-07-21T06:51:45;23.80;99.90
18686;DHT22;9473;52.342;13.110;2022-07-21T06:54:12;23.80;99.90
18686;DHT22;9473;52.342;13.110;2022-07-21T06:56:38;23.90;99.90
18686;DHT22;9473;52.342;13.110;2022-07-21T06:59:05;23.90;99.90
18686;DHT22;9473;52.342;13.110;2022-07-21T07:01:33;24.20;99.90
18686;DHT22;9473;52.342;13.110;2022-07-21T07:04:01;23.90;99.90
18686;DHT22;9473;52.342;13.110;2022-07-21T07:06:27;24.10;99.90
18686;DHT22;9473;52.342;13.110;2022-07-21T07:08:54;24.10;99.90
18686;DHT22;9473;52.342;13.110;2022-07-21T07:11:21;24.00;99.90
18686;DHT22;9473;52.342;13.110;2022-07-21T07:13:47;24.00;99.90
18686;DHT22;9473;52.342;13.110;2022-07-21T07:16:14;24.00;99.90
18686;DHT22;9473;52.342;13.110;2022-07-21T07:18:41;24.10;99.90
18686;DHT22;9473;52.342;13.110;2022-07-21T07:21:08;24.10;99.90
18686;DHT22;9473;52.342;13.110;2022-07-21T07:23:34;24.20;99.90
18686;DHT22;9473;52.342;13.110;2022-07-21T07:26:01;24.10;99.90
18686;DHT22;9473;52.342;13.110;2022-07-21T07:28:27;24.10;99.90
18686;DHT22;9473;52.342;13.110;2022-07-21T07:30:54;24.30;99.90
18686;DHT22;9473;52.342;13.110;2022-07-21T07:33:21;24.30;99.90
18686;DHT22;9473;52.342;13.110;2022-07-21T07:35:51;24.30;99.90
18686;DHT22;9473;52.342;13.110;2022-07-21T07:38:18;24.40;99.90
18686;DHT22;9473;52.342;13.110;2022-07-21T07:40:44;24.40;99.90
18686;DHT22;9473;52.342;13.110;2022-07-21T07:43:11;24.60;99.90
18686;DHT22;9473;52.342;13.110;2022-07-21T07:45:38;24.40;99.90
18686;DHT22;9473;52.342;13.110;2022-07-21T07:48:05;24.60;99.90
18686;DHT22;9473;52.342;13.110;2022-07-21T07:50:32;24.40;99.90
18686;DHT22;9473;52.342;13.110;2022-07-21T07:53:00;24.50;99.90
18686;DHT22;9473;52.342;13.110;2022-07-21T07:55:27;24.50;99.90
18686;DHT22;9473;52.342;13.110;2022-07-21T07:57:53;24.50;99.90
18686;DHT22;9473;52.342;13.110;2022-07-21T08:00:20;24.60;99.90
18686;DHT22;9473;52.342;13.110;2022-07-21T08:02:47;24.60;99.90
18686;DHT22;9473;52.342;13.110;2022-07-21T08:05:15;24.60;99.90
18686;DHT22;9473;52.342;13.110;2022-07-21T08:07:41;24.60;99.90
18686;DHT22;9473;52.342;13.110;2022-07-21T08:10:11;24.70;99.90
18686;DHT22;9473;52.342;13.110;2022-07-21T08:12:39;24.80;99.90
18686;DHT22;9473;52.342;13.110;2022-07-21T08:15:07;24.80;99.90
18686;DHT22;9473;52.342;13.110;2022-07-21T08:17:34;25.10;99.90
18686;DHT22;9473;52.342;13.110;2022-07-21T08:20:01;24.90;99.90
18686;DHT22;9473;52.342;13.110;2022-07-21T08:22:28;24.90;99.90
18686;DHT22;9473;52.342;13.110;2022-07-21T08:24:55;25.00;99.90
18686;DHT22;9473;52.342;13.110;2022-07-21T08:27:22;25.10;99.90
18686;DHT22;9473;52.342;13.110;2022-07-21T08:29:49;25.20;99.90
18686;DHT22;9473;52.342;13.110;2022-07-21T08:32:18;25.20;99.90
18686;DHT22;9473;52.342;13.110;2022-07-21T08:34:46;25.20;99.90
18686;DHT22;9473;52.342;13.110;2022-07-21T08:37:12;25.20;99.90
18686;DHT22;9473;52.342;13.110;2022-07-21T08:39:39;25.20;99.90
18686;DHT22;9473;52.342;13.110;2022-07-21T08:42:06;25.30;99.90
18686;DHT22;9473;52.342;13.110;2022-07-21T08:44:34;25.30;99.90
18686;DHT22;9473;52.342;13.110;2022-07-21T08:47:01;25.30;99.90
18686;DHT22;9473;52.342;13.110;2022-07-21T08:49:28;25.30;99.90
18686;DHT22;9473;52.342;13.110;2022-07-21T08:51:55;25.60;99.90
18686;DHT22;9473;52.342;13.110;2022-07-21T08:54:22;25.40;99.90
18686;DHT22;9473;52.342;13.110;2022-07-21T08:56:49;25.40;99.90
18686;DHT22;9473;52.342;13.110;2022-07-21T08:59:16;25.40;99.90
18686;DHT22;9473;52.342;13.110;2022-07-21T09:01:44;25.40;99.90
18686;DHT22;9473;52.342;13.110;2022-07-21T09:04:22;25.50;99.90
18686;DHT22;9473;52.342;13.110;2022-07-21T09:06:51;25.60;99.90
18686;DHT22;9473;52.342;13.110;2022-07-21T09:09:19;25.50;99.90
18686;DHT22;9473;52.342;13.110;2022-07-21T09:11:47;25.60;99.90
18686;DHT22;9473;52.342;13.110;2022-07-21T09:14:14;25.60;99.90
18686;DHT22;9473;52.342;13.110;2022-07-21T09:16:45;25.60;99.90
18686;DHT22;9473;52.342;13.110;2022-07-21T09:19:16;25.60;99.90
18686;DHT22;9473;52.342;13.110;2022-07-21T09:21:44;25.70;99.90
18686;DHT22;9473;52.342;13.110;2022-07-21T09:24:16;25.70;99.90
18686;DHT22;9473;52.342;13.110;2022-07-21T09:27:00;25.90;99.90
18686;DHT22;9473;52.342;13.110;2022-07-21T09:29:34;25.90;99.90
18686;DHT22;9473;52.342;13.110;2022-07-21T09:32:17;25.60;99.90
18686;DHT22;9473;52.342;13.110;2022-07-21T09:34:45;26.10;99.90
18686;DHT22;9473;52.342;13.110;2022-07-21T09:37:12;26.00;99.90
18686;DHT22;9473;52.342;13.110;2022-07-21T09:39:47;26.00;99.90
18686;DHT22;9473;52.342;13.110;2022-07-21T09:42:16;26.20;99.90
18686;DHT22;9473;52.342;13.110;2022-07-21T09:44:44;26.00;99.90
18686;DHT22;9473;52.342;13.110;2022-07-21T09:47:17;26.10;99.90
18686;DHT22;9473;52.342;13.110;2022-07-21T09:49:44;26.30;99.90
18686;DHT22;9473;52.342;13.110;2022-07-21T09:52:21;26.20;99.90
18686;DHT22;9473;52.342;13.110;2022-07-21T09:54:48;26.10;99.90
18686;DHT22;9473;52.342;13.110;2022-07-21T09:57:16;26.20;99.90
18686;DHT22;9473;52.342;13.110;2022-07-21T09:59:43;26.20;99.90
18686;DHT22;9473;52.342;13.110;2022-07-21T10:02:14;26.20;99.90
18686;DHT22;9473;52.342;13.110;2022-07-21T10:04:41;26.30;99.90
18686;DHT22;9473;52.342;13.110;2022-07-21T10:07:09;26.20;99.90
18686;DHT22;9473;52.342;13.110;2022-07-21T10:09:36;26.20;99.90
18686;DHT22;9473;52.342;13.110;2022-07-21T10:12:03;26.20;99.90
18686;DHT22;9473;52.342;13.110;2022-07-21T10:14:30;26.40;99.90
18686;DHT22;9473;52.342;13.110;2022-07-21T10:16:57;26.10;99.90
18686;DHT22;9473;52.342;13.110;2022-07-21T10:19:28;26.30;99.90
18686;DHT22;9473;52.342;13.110;2022-07-21T10:22:04;26.10;99.90
18686;DHT22;9473;52.342;13.110;2022-07-21T10:24:31;26.10;99.90
18686;DHT22;9473;52.342;13.110;2022-07-21T10:27:04;26.10;99.90
18686;DHT22;9473;52.342;13.110;2022-07-21T10:29:50;26.10;99.90
18686;DHT22;9473;52.342;13.110;2022-07-21T10:32:19;26.30;99.90
18686;DHT22;9473;52.342;13.110;2022-07-21T10:34:47;26.10;99.90
18686;DHT22;9473;52.342;13.110;2022-07-21T10:37:46;26.10;99.90
18686;DHT22;9473;52.342;13.110;2022-07-21T10:40:35;26.30;99.90
18686;DHT22;9473;52.342;13.110;2022-07-21T10:43:40;26.30;99.90
18686;DHT22;9473;52.342;13.110;2022-07-21T10:46:37;26.30;99.90
18686;DHT22;9473;52.342;13.110;2022-07-21T10:49:05;26.30;99.90
18686;DHT22;9473;52.342;13.110;2022-07-21T10:51:35;26.00;99.90
18686;DHT22;9473;52.342;13.110;2022-07-21T10:54:17;26.10;99.90
18686;DHT22;9473;52.342;13.110;2022-07-21T10:56:44;26.10;99.90
18686;DHT22;9473;52.342;13.110;2022-07-21T10:59:10;26.20;99.90
18686;DHT22;9473;52.342;13.110;2022-07-21T11:01:37;26.20;99.90
18686;DHT22;9473;52.342;13.110;2022-07-21T11:04:10;26.30;99.90
18686;DHT22;9473;52.342;13.110;2022-07-21T11:06:39;26.40;99.90
18686;DHT22;9473;52.342;13.110;2022-07-21T11:09:08;26.30;99.90
18686;DHT22;9473;52.342;13.110;2022-07-21T11:11:37;26.40;99.90
18686;DHT22;9473;52.342;13.110;2022-07-21T11:14:06;26.40;99.90
18686;DHT22;9473;52.342;13.110;2022-07-21T11:19:34;26.20;99.90
18686;DHT22;9473;52.342;13.110;2022-07-21T11:22:06;26.20;99.90
18686;DHT22;9473;52.342;13.110;2022-07-21T11:24:33;26.30;99.90
18686;DHT22;9473;52.342;13.110;2022-07-21T11:27:02;26.20;99.90
18686;DHT22;9473;52.342;13.110;2022-07-21T11:29:30;26.20;99.90
18686;DHT22;9473;52.342;13.110;2022-07-21T11:31:58;26.20;99.90
18686;DHT22;9473;52.342;13.110;2022-07-21T11:34:37;26.20;99.90
18686;DHT22;9473;52.342;13.110;2022-07-21T11:37:06;26.20;99.90
18686;DHT22;9473;52.342;13.110;2022-07-21T11:39:32;26.30;99.90
18686;DHT22;9473;52.342;13.110;2022-07-21T11:42:02;26.30;99.90
18686;DHT22;9473;52.342;13.110;2022-07-21T11:44:29;26.30;99.90
18686;DHT22;9473;52.342;13.110;2022-07-21T11:46:57;26.20;99.90
18686;DHT22;9473;52.342;13.110;2022-07-21T11:49:25;26.20;99.90
18686;DHT22;9473;52.342;13.110;2022-07-21T11:51:53;26.10;99.90
18686;DHT22;9473;52.342;13.110;2022-07-21T11:54:28;26.00;99.90
18686;DHT22;9473;52.342;13.110;2022-07-21T11:56:57;26.30;99.90
18686;DHT22;9473;52.342;13.110;2022-07-21T11:59:24;26.10;99.90
18686;DHT22;9473;52.342;13.110;2022-07-21T12:01:59;26.10;99.90
18686;DHT22;9473;52.342;13.110;2022-07-21T12:04:41;26.30;99.90
18686;DHT22;9473;52.342;13.110;2022-07-21T12:07:16;26.30;99.90
18686;DHT22;9473;52.342;13.110;2022-07-21T12:09:45;26.10;99.90
18686;DHT22;9473;52.342;13.110;2022-07-21T12:12:13;26.10;99.90
18686;DHT22;9473;52.342;13.110;2022-07-21T12:14:45;26.10;99.90
18686;DHT22;9473;52.342;13.110;2022-07-21T12:17:11;26.40;99.90
18686;DHT22;9473;52.342;13.110;2022-07-21T12:19:38;26.10;99.90
18686;DHT22;9473;52.342;13.110;2022-07-21T12:22:05;26.20;99.90
18686;DHT22;9473;52.342;13.110;2022-07-21T12:24:55;26.20;99.90
18686;DHT22;9473;52.342;13.110;2022-07-21T12:27:23;26.30;99.90
18686;DHT22;9473;52.342;13.110;2022-07-21T12:29:50;26.30;99.90
18686;DHT22;9473;52.342;13.110;2022-07-21T12:32:45;26.20;99.90
18686;DHT22;9473;52.342;13.110;2022-07-21T12:35:20;26.30;99.90
18686;DHT22;9473;52.342;13.110;2022-07-21T12:38:01;26.10;99.90
18686;DHT22;9473;52.342;13.110;2022-07-21T12:40:31;26.20;99.90
18686;DHT22;9473;52.342;13.110;2022-07-21T12:43:12;26.00;99.90
18686;DHT22;9473;52.342;13.110;2022-07-21T12:45:47;26.00;99.90
18686;DHT22;9473;52.342;13.110;2022-07-21T12:48:15;26.10;99.90
18686;DHT22;9473;52.342;13.110;2022-07-21T12:50:44;25.90;99.90
18686;DHT22;9473;52.342;13.110;2022-07-21T12:53:22;25.90;99.90
18686;DHT22;9473;52.342;13.110;2022-07-21T12:55:50;25.90;99.90
18686;DHT22;9473;52.342;13.110;2022-07-21T12:58:16;25.80;99.90
18686;DHT22;9473;52.342;13.110;2022-07-21T13:00:43;25.90;99.90
18686;DHT22;9473;52.342;13.110;2022-07-21T13:03:09;25.90;99.90
18686;DHT22;9473;52.342;13.110;2022-07-21T13:05:37;25.80;99.90
18686;DHT22;9473;52.342;13.110;2022-07-21T13:08:04;25.80;99.90
18686;DHT22;9473;52.342;13.110;2022-07-21T13:10:30;25.90;99.90
18686;DHT22;9473;52.342;13.110;2022-07-21T13:12:59;25.80;99.90
18686;DHT22;9473;52.342;13.110;2022-07-21T13:15:26;25.70;99.90
18686;DHT22;9473;52.342;13.110;2022-07-21T13:17:53;25.80;99.90
18686;DHT22;9473;52.342;13.110;2022-07-21T13:20:19;25.70;99.90
18686;DHT22;9473;52.342;13.110;2022-07-21T13:22:46;25.60;99.90
18686;DHT22;9473;52.342;13.110;2022-07-21T13:25:13;25.50;99.90
18686;DHT22;9473;52.342;13.110;2022-07-21T13:27:39;25.60;99.90
18686;DHT22;9473;52.342;13.110;2022-07-21T13:30:08;25.50;99.90
18686;DHT22;9473;52.342;13.110;2022-07-21T13:32:36;25.70;99.90
18686;DHT22;9473;52.342;13.110;2022-07-21T13:35:03;25.60;99.90
18686;DHT22;9473;52.342;13.110;2022-07-21T13:37:30;25.70;99.90
18686;DHT22;9473;52.342;13.110;2022-07-21T13:39:57;25.60;99.90
18686;DHT22;9473;52.342;13.110;2022-07-21T13:42:23;25.60;99.90
18686;DHT22;9473;52.342;13.110;2022-07-21T13:44:50;25.50;99.90
18686;DHT22;9473;52.342;13.110;2022-07-21T13:47:18;25.40;99.90
18686;DHT22;9473;52.342;13.110;2022-07-21T13:49:44;25.60;99.90
18686;DHT22;9473;52.342;13.110;2022-07-21T13:52:11;25.50;99.90
18686;DHT22;9473;52.342;13.110;2022-07-21T13:54:38;25.50;99.90
18686;DHT22;9473;52.342;13.110;2022-07-21T13:57:05;25.50;99.90
18686;DHT22;9473;52.342;13.110;2022-07-21T13:59:31;25.50;99.90
18686;DHT22;9473;52.342;13.110;2022-07-21T14:01:58;25.40;99.90
18686;DHT22;9473;52.342;13.110;2022-07-21T14:04:25;25.50;99.90
18686;DHT22;9473;52.342;13.110;2022-07-21T14:06:52;25.50;99.90
18686;DHT22;9473;52.342;13.110;2022-07-21T14:09:19;25.50;99.90
18686;DHT22;9473;52.342;13.110;2022-07-21T14:11:46;25.50;99.90
18686;DHT22;9473;52.342;13.110;2022-07-21T14:14:12;25.50;99.90
18686;DHT22;9473;52.342;13.110;2022-07-21T14:16:42;25.60;99.90
18686;DHT22;9473;52.342;13.110;2022-07-21T14:19:09;25.70;99.90
18686;DHT22;9473;52.342;13.110;2022-07-21T14:21:37;25.60;99.90
18686;DHT22;9473;52.342;13.110;2022-07-21T14:24:04;25.70;99.90
18686;DHT22;9473;52.342;13.110;2022-07-21T14:26:54;25.80;99.90
18686;DHT22;9473;52.342;13.110;2022-07-21T14:29:21;25.70;99.90
18686;DHT22;9473;52.342;13.110;2022-07-21T14:31:47;25.70;99.90
18686;DHT22;9473;52.342;13.110;2022-07-21T14:34:14;25.70;99.90
18686;DHT22;9473;52.342;13.110;2022-07-21T14:36:42;25.90;99.90
18686;DHT22;9473;52.342;13.110;2022-07-21T14:39:09;25.80;99.90
18686;DHT22;9473;52.342;13.110;2022-07-21T14:41:35;25.80;99.90
18686;DHT22;9473;52.342;13.110;2022-07-21T14:44:02;25.80;99.90
18686;DHT22;9473;52.342;13.110;2022-07-21T14:46:28;26.00;99.90
18686;DHT22;9473;52.342;13.110;2022-07-21T14:48:56;25.90;99.90
18686;DHT22;9473;52.342;13.110;2022-07-21T14:51:22;25.70;99.90
18686;DHT22;9473;52.342;13.110;2022-07-21T14:53:50;25.80;99.90
18686;DHT22;9473;52.342;13.110;2022-07-21T14:56:17;25.80;99.90
18686;DHT22;9473;52.342;13.110;2022-07-21T14:58:43;25.80;99.90
18686;DHT22;9473;52.342;13.110;2022-07-21T15:01:10;25.90;99.90
18686;DHT22;9473;52.342;13.110;2022-07-21T15:03:36;25.80;99.90
18686;DHT22;9473;52.342;13.110;2022-07-21T15:06:03;25.70;99.90
18686;DHT22;9473;52.342;13.110;2022-07-21T15:08:30;25.90;99.90
18686;DHT22;9473;52.342;13.110;2022-07-21T15:10:58;25.80;99.90
18686;DHT22;9473;52.342;13.110;2022-07-21T15:13:25;25.80;99.90
18686;DHT22;9473;52.342;13.110;2022-07-21T15:15:54;25.80;99.90
18686;DHT22;9473;52.342;13.110;2022-07-21T15:18:20;25.80;99.90
18686;DHT22;9473;52.342;13.110;2022-07-21T15:20:47;25.80;99.90
18686;DHT22;9473;52.342;13.110;2022-07-21T15:23:13;25.90;99.90
18686;DHT22;9473;52.342;13.110;2022-07-21T15:25:40;25.80;99.90
18686;DHT22;9473;52.342;13.110;2022-07-21T15:28:08;25.80;99.90
18686;DHT22;9473;52.342;13.110;2022-07-21T15:30:35;25.80;99.90
18686;DHT22;9473;52.342;13.110;2022-07-21T15:33:02;25.70;99.90
18686;DHT22;9473;52.342;13.110;2022-07-21T15:35:28;25.80;99.90
18686;DHT22;9473;52.342;13.110;2022-07-21T15:37:55;25.70;99.90
18686;DHT22;9473;52.342;13.110;2022-07-21T15:40:21;25.70;99.90
18686;DHT22;9473;52.342;13.110;2022-07-21T15:42:48;25.50;99.90
18686;DHT22;9473;52.342;13.110;2022-07-21T15:45:16;25.70;99.90
18686;DHT22;9473;52.342;13.110;2022-07-21T15:47:43;25.60;99.90
18686;DHT22;9473;52.342;13.110;2022-07-21T15:50:10;25.70;99.90
18686;DHT22;9473;52.342;13.110;2022-07-21T15:52:36;25.60;99.90
18686;DHT22;9473;52.342;13.110;2022-07-21T15:55:03;25.60;99.90
18686;DHT22;9473;52.342;13.110;2022-07-21T15:57:31;25.80;99.90
18686;DHT22;9473;52.342;13.110;2022-07-21T15:59:58;25.60;99.90
18686;DHT22;9473;52.342;13.110;2022-07-21T16:02:26;25.60;99.90
18686;DHT22;9473;52.342;13.110;2022-07-21T16:04:53;25.60;99.90
18686;DHT22;9473;52.342;13.110;2022-07-21T16:07:19;25.60;99.90
18686;DHT22;9473;52.342;13.110;2022-07-21T16:09:46;25.60;99.90
18686;DHT22;9473;52.342;13.110;2022-07-21T16:12:13;25.60;99.90
18686;DHT22;9473;52.342;13.110;2022-07-21T16:14:40;25.70;99.90
18686;DHT22;9473;52.342;13.110;2022-07-21T16:17:08;25.60;99.90
18686;DHT22;9473;52.342;13.110;2022-07-21T16:19:36;25.70;99.90
18686;DHT22;9473;52.342;13.110;2022-07-21T16:22:03;25.70;99.90
18686;DHT22;9473;52.342;13.110;2022-07-21T16:24:29;25.70;99.90
18686;DHT22;9473;52.342;13.110;2022-07-21T16:26:56;25.70;99.90
18686;DHT22;9473;52.342;13.110;2022-07-21T16:29:23;25.70;99.90
18686;DHT22;9473;52.342;13.110;2022-07-21T16:31:49;25.70;99.90
18686;DHT22;9473;52.342;13.110;2022-07-21T16:34:16;25.70;99.90
18686;DHT22;9473;52.342;13.110;2022-07-21T16:36:44;25.60;99.90
18686;DHT22;9473;52.342;13.110;2022-07-21T16:39:10;25.60;99.90
18686;DHT22;9473;52.342;13.110;2022-07-21T16:41:37;25.60;99.90
18686;DHT22;9473;52.342;13.110;2022-07-21T16:44:04;25.60;99.90
18686;DHT22;9473;52.342;13.110;2022-07-21T16:46:31;25.80;99.90
18686;DHT22;9473;52.342;13.110;2022-07-21T16:48:57;25.80;99.90
18686;DHT22;9473;52.342;13.110;2022-07-21T16:51:24;25.70;99.90
18686;DHT22;9473;52.342;13.110;2022-07-21T16:53:52;25.80;99.90
18686;DHT22;9473;52.342;13.110;2022-07-21T16:56:18;25.90;99.90
18686;DHT22;9473;52.342;13.110;2022-07-21T16:58:45;25.80;99.90
18686;DHT22;9473;52.342;13.110;2022-07-21T17:01:11;26.30;99.90
18686;DHT22;9473;52.342;13.110;2022-07-21T17:03:38;25.90;99.90
18686;DHT22;9473;52.342;13.110;2022-07-21T17:06:05;25.90;99.90
18686;DHT22;9473;52.342;13.110;2022-07-21T17:08:31;26.00;99.90
18686;DHT22;9473;52.342;13.110;2022-07-21T17:10:59;25.90;99.90
18686;DHT22;9473;52.342;13.110;2022-07-21T17:13:26;25.90;99.90
18686;DHT22;9473;52.342;13.110;2022-07-21T17:15:52;25.90;99.90
18686;DHT22;9473;52.342;13.110;2022-07-21T17:18:19;26.00;99.90
18686;DHT22;9473;52.342;13.110;2022-07-21T17:20:46;25.90;99.90
18686;DHT22;9473;52.342;13.110;2022-07-21T17:23:14;25.90;99.90
18686;DHT22;9473;52.342;13.110;2022-07-21T17:25:40;25.90;99.90
18686;DHT22;9473;52.342;13.110;2022-07-21T17:28:08;26.10;99.90
18686;DHT22;9473;52.342;13.110;2022-07-21T17:30:35;25.90;99.90
18686;DHT22;9473;52.342;13.110;2022-07-21T17:33:02;25.90;99.90
18686;DHT22;9473;52.342;13.110;2022-07-21T17:35:28;26.00;99.90
18686;DHT22;9473;52.342;13.110;2022-07-21T17:37:55;26.10;99.90
18686;DHT22;9473;52.342;13.110;2022-07-21T17:40:22;25.90;99.90
18686;DHT22;9473;52.342;13.110;2022-07-21T17:42:49;25.80;99.90
18686;DHT22;9473;52.342;13.110;2022-07-21T17:45:17;25.90;99.90
18686;DHT22;9473;52.342;13.110;2022-07-21T17:47:45;25.90;99.90
18686;DHT22;9473;52.342;13.110;2022-07-21T17:50:12;25.90;99.90
18686;DHT22;9473;52.342;13.110;2022-07-21T17:52:39;26.00;99.90
18686;DHT22;9473;52.342;13.110;2022-07-21T17:55:06;25.90;99.90
18686;DHT22;9473;52.342;13.110;2022-07-21T17:57:32;25.90;99.90
18686;DHT22;9473;52.342;13.110;2022-07-21T18:00:18;25.90;99.90
18686;DHT22;9473;52.342;13.110;2022-07-21T18:02:45;25.90;99.90
18686;DHT22;9473;52.342;13.110;2022-07-21T18:05:11;25.80;99.90
18686;DHT22;9473;52.342;13.110;2022-07-21T18:07:38;25.90;99.90
18686;DHT22;9473;52.342;13.110;2022-07-21T18:10:06;25.90;99.90
18686;DHT22;9473;52.342;13.110;2022-07-21T18:12:32;25.90;99.90
18686;DHT22;9473;52.342;13.110;2022-07-21T18:14:59;25.90;99.90
18686;DHT22;9473;52.342;13.110;2022-07-21T18:17:27;26.00;99.90
18686;DHT22;9473;52.342;13.110;2022-07-21T18:19:53;26.00;99.90
18686;DHT22;9473;52.342;13.110;2022-07-21T18:22:20;25.90;99.90
18686;DHT22;9473;52.342;13.110;2022-07-21T18:24:46;25.80;99.90
18686;DHT22;9473;52.342;13.110;2022-07-21T18:27:13;25.80;99.90
18686;DHT22;9473;52.342;13.110;2022-07-21T18:29:40;25.80;99.90
18686;DHT22;9473;52.342;13.110;2022-07-21T18:32:06;25.90;99.90
18686;DHT22;9473;52.342;13.110;2022-07-21T18:34:34;25.60;99.90
18686;DHT22;9473;52.342;13.110;2022-07-21T18:37:00;25.70;99.90
18686;DHT22;9473;52.342;13.110;2022-07-21T18:39:27;25.70;99.90
18686;DHT22;9473;52.342;13.110;2022-07-21T18:41:54;25.60;99.90
18686;DHT22;9473;52.342;13.110;2022-07-21T18:44:20;25.60;99.90
18686;DHT22;9473;52.342;13.110;2022-07-21T18:46:47;25.50;99.90
18686;DHT22;9473;52.342;13.110;2022-07-21T18:49:13;25.40;99.90
18686;DHT22;9473;52.342;13.110;2022-07-21T18:51:41;25.20;99.90
18686;DHT22;9473;52.342;13.110;2022-07-21T18:54:08;25.30;99.90
18686;DHT22;9473;52.342;13.110;2022-07-21T18:56:34;25.20;99.90
18686;DHT22;9473;52.342;13.110;2022-07-21T18:59:01;25.20;99.90
18686;DHT22;9473;52.342;13.110;2022-07-21T19:01:27;25.10;99.90
18686;DHT22;9473;52.342;13.110;2022-07-21T19:03:54;25.10;99.90
18686;DHT22;9473;52.342;13.110;2022-07-21T19:06:20;25.10;99.90
18686;DHT22;9473;52.342;13.110;2022-07-21T19:08:48;24.90;99.90
18686;DHT22;9473;52.342;13.110;2022-07-21T19:11:15;24.90;99.90
18686;DHT22;9473;52.342;13.110;2022-07-21T19:13:41;24.80;99.90
18686;DHT22;9473;52.342;13.110;2022-07-21T19:16:08;24.80;99.90
18686;DHT22;9473;52.342;13.110;2022-07-21T19:18:35;24.80;99.90
18686;DHT22;9473;52.342;13.110;2022-07-21T19:21:02;24.80;99.90
18686;DHT22;9473;52.342;13.110;2022-07-21T19:23:29;24.90;99.90
18686;DHT22;9473;52.342;13.110;2022-07-21T19:25:57;24.80;99.90
18686;DHT22;9473;52.342;13.110;2022-07-21T19:28:23;24.80;99.90
18686;DHT22;9473;52.342;13.110;2022-07-21T19:30:50;24.70;99.90
18686;DHT22;9473;52.342;13.110;2022-07-21T19:33:16;24.70;99.90
18686;DHT22;9473;52.342;13.110;2022-07-21T19:35:43;24.80;99.90
18686;DHT22;9473;52.342;13.110;2022-07-21T19:38:09;24.70;99.90
18686;DHT22;9473;52.342;13.110;2022-07-21T19:40:36;24.80;99.90
18686;DHT22;9473;52.342;13.110;2022-07-21T19:43:04;24.60;99.90
18686;DHT22;9473;52.342;13.110;2022-07-21T19:45:31;24.60;99.90
18686;DHT22;9473;52.342;13.110;2022-07-21T19:47:58;24.60;99.90
18686;DHT22;9473;52.342;13.110;2022-07-21T19:50:26;24.50;99.90
18686;DHT22;9473;52.342;13.110;2022-07-21T19:52:53;24.60;99.90
18686;DHT22;9473;52.342;13.110;2022-07-21T19:55:19;24.60;99.90
18686;DHT22;9473;52.342;13.110;2022-07-21T19:57:46;24.40;99.90
18686;DHT22;9473;52.342;13.110;2022-07-21T20:00:17;24.40;99.90
18686;DHT22;9473;52.342;13.110;2022-07-21T20:02:44;24.70;99.90
18686;DHT22;9473;52.342;13.110;2022-07-21T20:05:11;24.50;99.90
18686;DHT22;9473;52.342;13.110;2022-07-21T20:07:37;24.40;99.90
18686;DHT22;9473;52.342;13.110;2022-07-21T20:10:05;24.30;99.90
18686;DHT22;9473;52.342;13.110;2022-07-21T20:12:33;24.40;99.90
18686;DHT22;9473;52.342;13.110;2022-07-21T20:14:59;24.20;99.90
18686;DHT22;9473;52.342;13.110;2022-07-21T20:17:28;24.10;99.90
18686;DHT22;9473;52.342;13.110;2022-07-21T20:19:54;24.10;99.90
18686;DHT22;9473;52.342;13.110;2022-07-21T20:22:21;24.10;99.90
18686;DHT22;9473;52.342;13.110;2022-07-21T20:24:47;24.10;99.90
18686;DHT22;9473;52.342;13.110;2022-07-21T20:27:14;24.00;99.90
18686;DHT22;9473;52.342;13.110;2022-07-21T20:29:40;24.00;99.90
18686;DHT22;9473;52.342;13.110;2022-07-21T20:32:07;24.00;99.90
18686;DHT22;9473;52.342;13.110;2022-07-21T20:34:35;24.10;99.90
18686;DHT22;9473;52.342;13.110;2022-07-21T20:37:01;24.00;99.90
18686;DHT22;9473;52.342;13.110;2022-07-21T20:39:28;23.90;99.90
18686;DHT22;9473;52.342;13.110;2022-07-21T20:41:54;24.00;99.90
18686;DHT22;9473;52.342;13.110;2022-07-21T20:44:21;23.90;99.90
18686;DHT22;9473;52.342;13.110;2022-07-21T20:46:47;24.00;99.90
18686;DHT22;9473;52.342;13.110;2022-07-21T20:49:14;23.90;99.90
18686;DHT22;9473;52.342;13.110;2022-07-21T20:51:42;23.80;99.90